createdAt,value
2018-07-16T00:01:33.133Z,96.71
2018-07-16T00:04:02.307Z,97.75
2018-07-16T00:06:31.418Z,97.10
2018-07-16T00:09:00.432Z,96.68
2018-07-16T00:11:29.506Z,96.81
2018-07-16T00:14:01.615Z,96.75
2018-07-16T00:16:30.681Z,96.55
2018-07-16T00:18:59.809Z,96.28
2018-07-16T00:21:28.905Z,97.06
2018-07-16T00:23:58.081Z,97.85
2018-07-16T00:26:27.179Z,97.42
2018-07-16T00:28:56.265Z,96.60
2018-07-16T00:31:25.365Z,96.06
2018-07-16T00:33:54.475Z,97.50
2018-07-16T00:36:23.553Z,97.23
2018-07-16T00:38:52.605Z,96.24
2018-07-16T00:41:21.713Z,96.61
2018-07-16T00:43:50.836Z,96.35
2018-07-16T00:46:19.783Z,96.44
2018-07-16T00:48:48.942Z,97.23
2018-07-16T00:51:18.017Z,96.93
2018-07-16T00:53:47.122Z,96.80
2018-07-16T00:56:16.170Z,96.66
2018-07-16T00:58:45.217Z,96.50
2018-07-16T01:01:14.287Z,95.14
2018-07-16T01:03:43.333Z,95.89
2018-07-16T01:06:12.412Z,96.09
2018-07-16T01:08:41.496Z,96.49
2018-07-16T01:11:10.579Z,95.41
2018-07-16T01:13:39.721Z,96.31
2018-07-16T01:16:09.083Z,97.20
2018-07-16T01:18:38.478Z,95.99
2018-07-16T01:21:07.996Z,97.38
2018-07-16T01:23:37.669Z,97.14
2018-07-16T01:26:07.231Z,96.09
2018-07-16T01:28:36.660Z,96.24
2018-07-16T01:31:06.003Z,95.67
2018-07-16T01:33:36.122Z,95.88
2018-07-16T01:36:05.200Z,96.33
2018-07-16T01:38:34.488Z,96.15
2018-07-16T01:41:03.841Z,96.44
2018-07-16T01:43:33.011Z,95.91
2018-07-16T01:46:02.231Z,96.42
2018-07-16T01:48:31.283Z,97.31
2018-07-16T01:51:00.481Z,97.10
2018-07-16T01:53:29.612Z,96.48
2018-07-16T01:55:58.725Z,97.00
2018-07-16T01:58:27.700Z,96.92
2018-07-16T02:00:58.950Z,97.98
2018-07-16T02:03:30.370Z,97.21
2018-07-16T02:05:59.673Z,96.92
2018-07-16T02:08:29.133Z,97.36
2018-07-16T02:10:58.564Z,96.98
2018-07-16T02:13:27.604Z,96.76
2018-07-16T02:15:56.658Z,97.05
2018-07-16T02:18:25.658Z,98.00
2018-07-16T02:20:55.898Z,98.64
2018-07-16T02:23:24.926Z,97.88
2018-07-16T02:25:53.986Z,98.87
2018-07-16T02:28:23.000Z,98.18
2018-07-16T02:30:52.026Z,99.03
2018-07-16T02:33:21.237Z,98.47
2018-07-16T02:35:50.338Z,98.46
2018-07-16T02:38:19.382Z,98.84
2018-07-16T02:40:48.379Z,98.16
2018-07-16T02:43:17.417Z,99.55
2018-07-16T02:45:46.433Z,99.69
2018-07-16T02:48:15.539Z,100.00
2018-07-16T02:50:44.556Z,100.00
2018-07-16T02:53:13.606Z,100.00
2018-07-16T02:55:42.617Z,99.60
2018-07-16T02:58:11.756Z,99.09
2018-07-16T03:00:40.848Z,100.00
2018-07-16T03:03:09.893Z,99.82
2018-07-16T03:05:38.888Z,100.00
2018-07-16T03:08:08.845Z,100.00
2018-07-16T03:10:37.812Z,100.00
2018-07-16T03:13:07.311Z,100.00
2018-07-16T03:15:36.282Z,100.00
2018-07-16T03:18:05.397Z,100.00
2018-07-16T03:20:34.434Z,100.00
2018-07-16T03:23:03.505Z,100.00
2018-07-16T03:25:32.623Z,100.00
2018-07-16T03:28:01.873Z,100.00
2018-07-16T03:30:31.028Z,100.00
2018-07-16T03:33:00.138Z,100.00
2018-07-16T03:35:29.357Z,100.00
2018-07-16T03:37:58.508Z,100.00
2018-07-16T03:40:27.665Z,100.00
2018-07-16T03:42:56.801Z,100.00
2018-07-16T03:45:25.912Z,100.00
2018-07-16T03:47:55.097Z,100.00
2018-07-16T03:50:24.254Z,100.00
2018-07-16T03:52:53.756Z,100.00
2018-07-16T03:55:23.010Z,100.00
2018-07-16T03:57:52.342Z,100.00
2018-07-16T04:00:21.517Z,100.00
2018-07-16T04:02:50.565Z,100.00
2018-07-16T04:05:19.806Z,100.00
2018-07-16T04:07:48.870Z,100.00
2018-07-16T04:10:17.896Z,100.00
2018-07-16T04:12:47.183Z,100.00
2018-07-16T04:15:16.237Z,100.00
2018-07-16T04:17:45.558Z,100.00
2018-07-16T04:20:15.011Z,100.00
2018-07-16T04:22:44.285Z,100.00
2018-07-16T04:25:13.676Z,100.00
2018-07-16T04:27:43.063Z,100.00
2018-07-16T04:30:12.358Z,100.00
2018-07-16T04:32:41.925Z,100.00
2018-07-16T04:35:11.314Z,100.00
2018-07-16T04:37:40.701Z,100.00
2018-07-16T04:40:10.083Z,100.00
2018-07-16T04:42:39.437Z,100.00
2018-07-16T04:45:08.946Z,100.00
2018-07-16T04:47:38.428Z,100.00
2018-07-16T04:50:07.672Z,100.00
2018-07-16T04:52:37.054Z,100.00
2018-07-16T04:55:06.532Z,100.00
2018-07-16T04:57:35.948Z,100.00
2018-07-16T05:00:05.745Z,100.00
2018-07-16T05:02:35.145Z,100.00
2018-07-16T05:05:04.812Z,100.00
2018-07-16T05:07:34.139Z,100.00
2018-07-16T05:10:03.613Z,100.00
2018-07-16T05:12:32.920Z,100.00
2018-07-16T05:15:02.289Z,100.00
2018-07-16T05:17:31.756Z,100.00
2018-07-16T05:20:01.154Z,100.00
2018-07-16T05:22:30.575Z,100.00
2018-07-16T05:25:00.003Z,100.00
2018-07-16T05:27:29.388Z,100.00
2018-07-16T05:29:59.210Z,100.00
2018-07-16T05:32:28.721Z,100.00
2018-07-16T05:34:58.032Z,100.00
2018-07-16T05:37:27.353Z,100.00
2018-07-16T05:39:56.693Z,100.00
2018-07-16T05:42:26.155Z,100.00
2018-07-16T05:44:55.824Z,100.00
2018-07-16T05:47:25.102Z,100.00
2018-07-16T05:49:54.437Z,100.00
2018-07-16T05:52:23.800Z,100.00
2018-07-16T05:54:53.198Z,100.00
2018-07-16T05:57:23.109Z,98.81
2018-07-16T05:59:53.025Z,98.86
2018-07-16T06:02:22.553Z,98.06
2018-07-16T06:04:51.907Z,95.98
2018-07-16T06:07:21.278Z,94.74
2018-07-16T06:09:50.684Z,94.83
2018-07-16T06:12:19.856Z,93.26
2018-07-16T06:14:49.028Z,92.69
2018-07-16T06:17:18.601Z,91.42
2018-07-16T06:19:47.812Z,92.54
2018-07-16T06:22:17.231Z,90.78
2018-07-16T06:24:46.526Z,90.46
2018-07-16T06:27:15.895Z,91.45
2018-07-16T06:29:45.366Z,90.17
2018-07-16T06:32:14.915Z,91.90
2018-07-16T06:34:44.526Z,91.79
2018-07-16T06:37:14.722Z,92.45
2018-07-16T06:39:44.321Z,91.71
2018-07-16T06:42:13.727Z,93.60
2018-07-16T06:44:43.288Z,93.33
2018-07-16T06:47:12.710Z,93.26
2018-07-16T06:49:42.251Z,93.31
2018-07-16T06:52:11.740Z,93.45
2018-07-16T06:54:41.368Z,91.83
2018-07-16T06:57:10.673Z,91.28
2018-07-16T06:59:40.148Z,89.21
2018-07-16T07:02:09.650Z,86.59
2018-07-16T07:04:38.948Z,87.78
2018-07-16T07:07:08.394Z,88.84
2018-07-16T07:09:37.754Z,89.06
2018-07-16T07:12:07.009Z,88.14
2018-07-16T07:14:36.302Z,83.36
2018-07-16T07:17:05.818Z,86.38
2018-07-16T07:19:35.020Z,83.41
2018-07-16T07:22:04.420Z,85.26
2018-07-16T07:24:34.199Z,82.49
2018-07-16T07:27:03.564Z,81.76
2018-07-16T07:29:34.254Z,83.06
2018-07-16T07:32:03.912Z,83.75
2018-07-16T07:34:33.308Z,82.54
2018-07-16T07:37:02.685Z,83.51
2018-07-16T07:39:32.527Z,83.19
2018-07-16T07:42:02.147Z,82.06
2018-07-16T07:44:31.575Z,79.27
2018-07-16T07:47:01.703Z,80.73
2018-07-16T07:49:31.172Z,80.84
2018-07-16T07:52:00.872Z,80.08
2018-07-16T07:54:30.710Z,77.41
2018-07-16T07:57:00.824Z,78.68
2018-07-16T07:59:29.918Z,77.42
2018-07-16T08:01:59.626Z,73.99
2018-07-16T08:04:28.737Z,74.53
2018-07-16T08:07:02.978Z,77.85
2018-07-16T08:09:33.530Z,76.17
2018-07-16T08:12:02.814Z,70.95
2018-07-16T08:14:32.606Z,68.54
2018-07-16T08:17:01.754Z,72.33
2018-07-16T08:19:30.869Z,71.90
2018-07-16T08:22:00.027Z,73.40
2018-07-16T08:24:30.188Z,70.50
2018-07-16T08:26:59.383Z,72.47
2018-07-16T08:29:28.488Z,73.24
2018-07-16T08:31:57.597Z,72.67
2018-07-16T08:34:26.810Z,72.91
2018-07-16T08:36:55.828Z,70.96
2018-07-16T08:39:24.940Z,67.32
2018-07-16T08:41:53.924Z,70.00
2018-07-16T08:44:23.002Z,68.71
2018-07-16T08:46:53.208Z,68.89
2018-07-16T08:49:22.873Z,65.78
2018-07-16T08:51:52.197Z,66.27
2018-07-16T08:54:21.943Z,68.07
2018-07-16T08:56:51.389Z,64.42
2018-07-16T08:59:20.789Z,64.74
2018-07-16T09:01:50.066Z,65.95
2018-07-16T09:04:19.387Z,66.03
2018-07-16T09:06:48.800Z,66.36
2018-07-16T09:09:18.082Z,66.83
2018-07-16T09:11:47.448Z,65.01
2018-07-16T09:14:16.820Z,66.65
2018-07-16T09:16:45.827Z,65.24
2018-07-16T09:19:15.396Z,65.48
2018-07-16T09:21:44.931Z,67.04
2018-07-16T09:24:14.379Z,64.33
2018-07-16T09:26:43.798Z,62.83
2018-07-16T09:29:13.923Z,63.80
2018-07-16T09:31:43.363Z,62.27
2018-07-16T09:34:12.668Z,63.17
2018-07-16T09:36:42.007Z,62.23
2018-07-16T09:39:11.723Z,60.57
2018-07-16T09:41:41.034Z,62.22
2018-07-16T09:44:10.708Z,63.66
2018-07-16T09:46:40.728Z,62.80
2018-07-16T09:49:10.109Z,63.77
2018-07-16T09:51:39.627Z,65.13
2018-07-16T09:54:09.016Z,64.17
2018-07-16T09:56:38.541Z,63.56
2018-07-16T09:59:07.974Z,64.28
2018-07-16T10:01:42.292Z,64.01
2018-07-16T10:04:12.287Z,61.49
2018-07-16T10:06:41.618Z,62.12
2018-07-16T10:09:11.138Z,63.71
2018-07-16T10:11:40.536Z,64.06
2018-07-16T10:14:09.790Z,61.18
2018-07-16T10:16:39.202Z,62.39
2018-07-16T10:19:08.608Z,60.67
2018-07-16T10:21:37.994Z,62.35
2018-07-16T10:24:07.393Z,58.76
2018-07-16T10:26:36.869Z,62.20
2018-07-16T10:29:06.433Z,61.26
2018-07-16T10:31:35.975Z,59.17
2018-07-16T10:34:05.324Z,60.26
2018-07-16T10:36:34.396Z,61.52
2018-07-16T10:39:05.356Z,61.86
2018-07-16T10:41:34.660Z,60.12
2018-07-16T10:44:03.848Z,61.60
2018-07-16T10:46:33.075Z,57.72
2018-07-16T10:49:02.383Z,60.37
2018-07-16T10:51:31.475Z,58.53
2018-07-16T10:54:00.744Z,58.59
2018-07-16T10:56:30.089Z,58.57
2018-07-16T10:58:59.127Z,58.38
2018-07-16T11:01:28.518Z,59.37
2018-07-16T11:03:58.076Z,59.75
2018-07-16T11:06:27.353Z,58.55
2018-07-16T11:08:56.624Z,59.44
2018-07-16T11:11:25.902Z,58.03
2018-07-16T11:13:55.209Z,53.74
2018-07-16T11:16:24.465Z,54.57
2018-07-16T11:18:53.805Z,54.57
2018-07-16T11:21:23.086Z,56.51
2018-07-16T11:23:52.164Z,59.12
2018-07-16T11:26:22.250Z,58.62
2018-07-16T11:28:51.312Z,57.65
2018-07-16T11:31:20.336Z,57.89
2018-07-16T11:33:49.518Z,59.19
2018-07-16T11:36:18.913Z,60.82
2018-07-16T11:38:48.387Z,57.65
2018-07-16T11:41:17.567Z,58.29
2018-07-16T11:43:47.852Z,56.06
2018-07-16T11:46:17.180Z,60.33
2018-07-16T11:48:46.698Z,58.47
2018-07-16T11:51:15.797Z,58.48
2018-07-16T11:53:45.004Z,57.70
2018-07-16T11:56:15.530Z,58.16
2018-07-16T11:58:44.620Z,56.94
2018-07-16T12:01:13.676Z,59.35
2018-07-16T12:03:43.180Z,57.06
2018-07-16T12:06:18.588Z,58.16
2018-07-16T12:08:47.644Z,57.72
2018-07-16T12:11:17.785Z,59.67
2018-07-16T12:13:46.849Z,59.43
2018-07-16T12:16:16.037Z,58.42
2018-07-16T12:18:45.238Z,60.88
2018-07-16T12:21:14.366Z,56.03
2018-07-16T12:23:43.394Z,54.42
2018-07-16T12:26:12.403Z,55.61
2018-07-16T12:28:41.473Z,55.73
2018-07-16T12:31:10.635Z,58.16
2018-07-16T12:33:39.692Z,56.74
2018-07-16T12:36:08.870Z,56.48
2018-07-16T12:38:37.930Z,56.31
2018-07-16T12:41:07.005Z,57.53
2018-07-16T12:43:36.061Z,58.21
2018-07-16T12:46:05.092Z,57.80
2018-07-16T12:48:34.118Z,58.90
2018-07-16T12:51:03.146Z,58.71
2018-07-16T12:53:32.138Z,57.31
2018-07-16T12:56:01.249Z,58.60
2018-07-16T12:58:30.269Z,60.19
2018-07-16T13:00:59.314Z,61.52
2018-07-16T13:03:28.287Z,61.27
2018-07-16T13:05:57.285Z,62.87
2018-07-16T13:08:26.357Z,61.75
2018-07-16T13:10:55.765Z,61.93
2018-07-16T13:13:24.872Z,60.67
2018-07-16T13:15:53.945Z,60.30
2018-07-16T13:18:23.088Z,59.62
2018-07-16T13:20:53.156Z,58.99
2018-07-16T13:23:22.220Z,56.54
2018-07-16T13:25:51.280Z,58.21
2018-07-16T13:28:21.570Z,61.02
2018-07-16T13:30:50.727Z,61.23
2018-07-16T13:33:19.817Z,61.34
2018-07-16T13:35:49.075Z,59.75
2018-07-16T13:38:18.274Z,57.87
2018-07-16T13:40:47.294Z,55.36
2018-07-16T13:43:16.358Z,55.54
2018-07-16T13:45:45.363Z,56.45
2018-07-16T13:48:14.472Z,56.28
2018-07-16T13:50:43.607Z,57.75
2018-07-16T13:53:12.799Z,57.30
2018-07-16T13:55:41.904Z,58.36
2018-07-16T13:58:11.005Z,59.67
2018-07-16T14:00:40.033Z,57.40
2018-07-16T14:03:10.795Z,57.44
2018-07-16T14:05:39.824Z,58.18
2018-07-16T14:08:09.107Z,58.37
2018-07-16T14:10:38.445Z,59.32
2018-07-16T14:13:07.726Z,60.82
2018-07-16T14:15:36.851Z,59.81
2018-07-16T14:18:05.928Z,58.82
2018-07-16T14:20:34.970Z,59.02
2018-07-16T14:23:03.994Z,58.81
2018-07-16T14:25:33.079Z,61.12
2018-07-16T14:28:02.999Z,61.43
2018-07-16T14:30:32.058Z,60.30
2018-07-16T14:33:01.258Z,61.73
2018-07-16T14:35:30.561Z,61.47
2018-07-16T14:37:59.677Z,62.73
2018-07-16T14:40:28.768Z,61.43
2018-07-16T14:42:57.903Z,63.56
2018-07-16T14:45:27.070Z,63.26
2018-07-16T14:47:56.267Z,63.22
2018-07-16T14:50:25.537Z,63.38
2018-07-16T14:52:54.648Z,63.73
2018-07-16T14:55:23.959Z,63.63
2018-07-16T14:57:53.191Z,63.63
2018-07-16T15:00:22.292Z,62.08
2018-07-16T15:02:51.503Z,61.10
2018-07-16T15:05:20.855Z,60.36
2018-07-16T15:07:49.950Z,61.47
2018-07-16T15:10:18.975Z,61.06
2018-07-16T15:12:48.167Z,59.78
2018-07-16T15:15:17.186Z,60.04
2018-07-16T15:17:46.403Z,62.21
2018-07-16T15:20:16.486Z,61.81
2018-07-16T15:22:45.567Z,63.91
2018-07-16T15:25:14.713Z,64.40
2018-07-16T15:27:43.753Z,62.18
2018-07-16T15:30:12.822Z,62.71
2018-07-16T15:32:41.897Z,61.91
2018-07-16T15:35:10.889Z,61.28
2018-07-16T15:37:40.043Z,60.53
2018-07-16T15:40:09.115Z,61.97
2018-07-16T15:42:38.209Z,62.13
2018-07-16T15:45:07.281Z,66.00
2018-07-16T15:47:36.383Z,63.78
2018-07-16T15:50:05.469Z,64.83
2018-07-16T15:52:34.558Z,66.48
2018-07-16T15:55:03.677Z,67.24
2018-07-16T15:57:32.816Z,68.46
2018-07-16T16:00:02.307Z,68.57
2018-07-16T16:02:31.309Z,71.37
2018-07-16T16:05:00.384Z,72.27
2018-07-16T16:07:33.400Z,70.20
2018-07-16T16:10:03.799Z,71.23
2018-07-16T16:12:32.927Z,71.71
2018-07-16T16:15:01.979Z,70.96
2018-07-16T16:17:31.242Z,70.00
2018-07-16T16:20:00.259Z,71.34
2018-07-16T16:22:29.363Z,73.40
2018-07-16T16:24:58.431Z,74.29
2018-07-16T16:27:27.452Z,72.21
2018-07-16T16:29:56.547Z,73.73
2018-07-16T16:32:25.558Z,69.35
2018-07-16T16:34:54.771Z,71.14
2018-07-16T16:37:24.170Z,71.96
2018-07-16T16:39:53.426Z,70.62
2018-07-16T16:42:22.603Z,73.79
2018-07-16T16:44:51.656Z,74.06
2018-07-16T16:47:20.813Z,71.64
2018-07-16T16:49:50.032Z,69.41
2018-07-16T16:52:19.747Z,71.11
2018-07-16T16:54:48.929Z,72.87
2018-07-16T16:57:17.945Z,73.07
2018-07-16T16:59:47.016Z,72.61
2018-07-16T17:02:15.976Z,72.97
2018-07-16T17:04:45.049Z,73.97
2018-07-16T17:07:14.131Z,74.88
2018-07-16T17:09:43.284Z,75.55
2018-07-16T17:12:12.476Z,76.32
2018-07-16T17:14:41.607Z,76.43
2018-07-16T17:17:11.241Z,76.19
2018-07-16T17:19:40.289Z,77.11
2018-07-16T17:22:09.537Z,78.17
2018-07-16T17:24:38.723Z,77.76
2018-07-16T17:27:07.834Z,78.24
2018-07-16T17:29:37.225Z,78.44
2018-07-16T17:32:06.297Z,77.71
2018-07-16T17:34:35.450Z,79.22
2018-07-16T17:37:05.322Z,76.53
2018-07-16T17:39:34.322Z,79.02
2018-07-16T17:42:03.427Z,79.01
2018-07-16T17:44:32.580Z,78.92
2018-07-16T17:47:01.619Z,80.69
2018-07-16T17:49:30.778Z,81.03
2018-07-16T17:51:59.981Z,80.16
2018-07-16T17:54:29.144Z,81.61
2018-07-16T17:56:58.262Z,81.89
2018-07-16T17:59:28.191Z,81.78
2018-07-16T18:01:57.411Z,82.39
2018-07-16T18:04:26.683Z,82.10
2018-07-16T18:06:56.010Z,81.42
2018-07-16T18:09:25.316Z,82.07
2018-07-16T18:11:54.502Z,81.52
2018-07-16T18:14:23.717Z,82.91
2018-07-16T18:16:52.809Z,83.25
2018-07-16T18:19:22.007Z,83.51
2018-07-16T18:21:51.062Z,82.52
2018-07-16T18:24:20.192Z,82.46
2018-07-16T18:26:49.349Z,83.42
2018-07-16T18:29:18.416Z,83.29
2018-07-16T18:31:47.474Z,84.90
2018-07-16T18:34:16.551Z,86.19
2018-07-16T18:36:45.864Z,85.82
2018-07-16T18:39:16.069Z,85.43
2018-07-16T18:41:45.216Z,84.26
2018-07-16T18:44:14.265Z,84.42
2018-07-16T18:46:43.404Z,84.76
2018-07-16T18:49:12.489Z,84.48
2018-07-16T18:51:41.686Z,83.65
2018-07-16T18:54:10.780Z,84.86
2018-07-16T18:56:39.978Z,86.17
2018-07-16T18:59:09.404Z,85.73
2018-07-16T19:01:38.646Z,85.13
2018-07-16T19:04:08.077Z,85.89
2018-07-16T19:06:38.130Z,87.43
2018-07-16T19:09:08.097Z,87.20
2018-07-16T19:11:37.414Z,86.42
2018-07-16T19:14:06.575Z,85.63
2018-07-16T19:16:35.892Z,86.06
2018-07-16T19:19:05.193Z,86.29
2018-07-16T19:21:34.372Z,86.39
2018-07-16T19:24:03.621Z,86.15
2018-07-16T19:26:33.427Z,85.96
2018-07-16T19:29:02.671Z,85.91
2018-07-16T19:31:32.675Z,85.87
2018-07-16T19:34:01.833Z,86.12
2018-07-16T19:36:31.122Z,86.62
2018-07-16T19:39:00.534Z,86.12
2018-07-16T19:41:30.390Z,86.47
2018-07-16T19:43:59.756Z,87.74
2018-07-16T19:46:29.067Z,88.75
2018-07-16T19:48:58.475Z,87.24
2018-07-16T19:51:27.770Z,88.10
2018-07-16T19:53:57.059Z,87.57
2018-07-16T19:56:26.399Z,87.15
2018-07-16T19:58:55.926Z,87.30
2018-07-16T20:01:25.052Z,86.65
2018-07-16T20:03:54.310Z,87.77
2018-07-16T20:06:23.350Z,88.43
2018-07-16T20:08:52.899Z,88.38
2018-07-16T20:11:22.049Z,87.96
2018-07-16T20:13:52.315Z,88.05
2018-07-16T20:16:22.379Z,88.71
2018-07-16T20:18:51.762Z,88.08
2018-07-16T20:21:22.344Z,89.07
2018-07-16T20:23:51.513Z,89.45
2018-07-16T20:26:20.858Z,88.86
2018-07-16T20:28:49.918Z,89.01
2018-07-16T20:31:19.247Z,89.13
2018-07-16T20:33:48.261Z,89.73
2018-07-16T20:36:17.441Z,90.39
2018-07-16T20:38:46.515Z,90.82
2018-07-16T20:41:15.581Z,90.33
2018-07-16T20:43:44.614Z,89.80
2018-07-16T20:46:13.979Z,89.23
2018-07-16T20:48:43.151Z,89.73
2018-07-16T20:51:12.292Z,90.21
2018-07-16T20:53:41.382Z,89.51
2018-07-16T20:56:10.498Z,89.98
2018-07-16T20:58:39.656Z,90.35
2018-07-16T21:01:08.851Z,90.54
2018-07-16T21:03:37.948Z,88.29
2018-07-16T21:06:07.017Z,88.13
2018-07-16T21:08:36.056Z,89.23
2018-07-16T21:11:05.960Z,89.70
2018-07-16T21:13:34.993Z,89.21
2018-07-16T21:16:04.173Z,88.76
2018-07-16T21:18:33.393Z,89.92
2018-07-16T21:21:02.796Z,90.96
2018-07-16T21:23:31.867Z,91.27
2018-07-16T21:26:00.958Z,91.64
2018-07-16T21:28:29.998Z,92.22
2018-07-16T21:30:59.118Z,92.08
2018-07-16T21:33:28.158Z,92.21
2018-07-16T21:35:57.233Z,91.92
2018-07-16T21:38:26.357Z,91.22
2018-07-16T21:40:55.380Z,91.03
2018-07-16T21:43:24.520Z,91.11
2018-07-16T21:45:53.694Z,91.83
2018-07-16T21:48:22.724Z,90.87
2018-07-16T21:50:51.985Z,90.95
2018-07-16T21:53:21.055Z,91.24
2018-07-16T21:55:50.121Z,91.45
2018-07-16T21:58:19.568Z,91.39
2018-07-16T22:00:49.449Z,91.83
2018-07-16T22:03:18.590Z,92.32
2018-07-16T22:05:48.096Z,91.23
2018-07-16T22:08:17.496Z,93.17
2018-07-16T22:10:46.590Z,92.25
2018-07-16T22:13:15.986Z,91.92
2018-07-16T22:15:45.918Z,91.63
2018-07-16T22:18:14.941Z,92.89
2018-07-16T22:20:44.487Z,93.23
2018-07-16T22:23:13.743Z,92.01
2018-07-16T22:25:43.102Z,92.16
2018-07-16T22:28:12.492Z,92.33
2018-07-16T22:30:42.095Z,92.28
2018-07-16T22:33:11.115Z,91.92
2018-07-16T22:35:40.519Z,93.61
2018-07-16T22:38:10.210Z,93.49
2018-07-16T22:40:39.599Z,92.64
2018-07-16T22:43:09.242Z,93.18
2018-07-16T22:45:38.299Z,92.99
2018-07-16T22:48:07.259Z,93.13
2018-07-16T22:50:36.277Z,94.47
2018-07-16T22:53:05.349Z,93.51
2018-07-16T22:55:34.314Z,94.02
2018-07-16T22:58:03.315Z,93.92
2018-07-16T23:00:32.359Z,95.05
2018-07-16T23:03:01.383Z,93.94
2018-07-16T23:05:30.559Z,94.72
2018-07-16T23:07:59.653Z,94.34
2018-07-16T23:10:28.661Z,95.03
2018-07-16T23:12:57.720Z,95.86
2018-07-16T23:15:26.729Z,94.84
2018-07-16T23:17:56.871Z,95.43
2018-07-16T23:20:26.582Z,94.38
2018-07-16T23:22:56.627Z,94.32
2018-07-16T23:25:25.641Z,94.15
2018-07-16T23:27:54.952Z,94.71
2018-07-16T23:30:24.050Z,95.04
2018-07-16T23:32:53.049Z,95.26
2018-07-16T23:35:22.025Z,95.68
2018-07-16T23:37:51.082Z,95.00
2018-07-16T23:40:20.146Z,95.22
2018-07-16T23:42:49.176Z,95.82
2018-07-16T23:45:18.324Z,96.01
2018-07-16T23:47:47.763Z,95.75
2018-07-16T23:50:17.301Z,96.12
2018-07-16T23:52:46.334Z,95.36
2018-07-16T23:55:15.359Z,94.43
2018-07-16T23:57:44.314Z,93.98
